Meteo Giornale » Osservazioni meteo Svizzera » Samedan

ore: 13:20 - Osservazioni Meteo Samedan
Lat. 46° 32' N Lon. 9° 53' E Alt. 1706 metri s.l.m.

nuvoloso Europe/Zurich

16 °C

Nuvoloso

Temp. 24 Ore

7 °C

19 °C

Nord-Est

9.3 Km/h

Dew point 4 °C

Umidità 44 %

Visibilità  10 Km

Il sole sorge alle ore 05:43

Il sole tramonta alle ore 21:10

Data e Ora Cielo e Fenomeni T °C DP °C Um. % Pres. hPa Vis. km Vento km/h
Oggi h: 13:20 nuvoloso Nuvoloso 16 4 44 1021 10 NE 9.3
Oggi h: 12:50 molto_nuvoloso Molto Nuvoloso 16 4 44 1021 10 NE 18.5
Oggi h: 12:20 molto_nuvoloso Molto Nuvoloso 16 4 44 1021 10 N/NE 16.7
Oggi h: 11:50 molto_nuvoloso Molto Nuvoloso 16 3 41 1021 10 N/NE 7.4
Oggi h: 11:20 molto_nuvoloso Molto Nuvoloso 15 4 47 1021 10 N/NE 7.4
Oggi h: 10:50 molto_nuvoloso Molto Nuvoloso 16 3 41 1021 10 N 3.7
Oggi h: 10:20 molto_nuvoloso Molto Nuvoloso 14 3 47 1021 10 O/NO 7.4
Oggi h: 09:50 molto_nuvoloso Molto Nuvoloso 14 4 50 1021 10 N 3.7
Oggi h: 09:20 molto_nuvoloso Molto Nuvoloso 14 4 50 1021 10 N 3.7
Oggi h: 08:50 molto_nuvoloso Molto Nuvoloso 13 8 71 1020 10 N 1.8
Oggi h: 08:20 molto_nuvoloso Molto Nuvoloso 11 9 87 1020 10 N 3.7
Oggi h: 07:50 molto_nuvoloso Molto Nuvoloso 9 7 87 1020 10 N 5.5
Oggi h: 07:20 nuvoloso Nuvoloso 8 6 87 1020 10 N 5.5
Oggi h: 06:50 nuvoloso Nuvoloso 7 5 87 1020 10 N 5.5
Oggi h: 06:20 nuvoloso Nuvoloso 7 5 87 1020 10 N 3.7
Oggi h: 05:50 coperto Coperto 8 5 81 1019 10 N 5.5
Oggi h: 05:20 coperto Coperto 9 6 81 1019 10 N 5.5
Oggi h: 04:50 molto_nuvoloso Molto Nuvoloso 9 7 87 1019 10 N 5.5
Oggi h: 04:20 molto_nuvoloso Molto Nuvoloso 8 7 93 1019 10 N 3.7
Oggi h: 03:50 molto_nuvoloso Molto Nuvoloso 10 7 81 1019 10 N 5.5
Oggi h: 03:20 molto_nuvoloso Molto Nuvoloso 10 7 81 1019 10 N 5.5
Oggi h: 02:50 molto_nuvoloso Molto Nuvoloso 10 8 87 1019 10 N 5.5
Oggi h: 02:20 molto_nuvoloso Molto Nuvoloso 10 7 81 1019 10 N 3.7
Oggi h: 01:50 coperto Coperto 9 7 87 1019 10 N 3.7
Oggi h: 01:20 coperto Coperto 9 8 93 1019 10 N 1.8
Oggi h: 00:50 molto_nuvoloso Molto Nuvoloso 8 7 93 1019 10 N 3.7
Oggi h: 00:20 poco_nuvoloso Poco Nuvoloso 7 6 93 1018 10 N 1.8
Ieri h: 23:50 nuvoloso Nuvoloso 10 8 87 1018 10 S 7.4
Ieri h: 23:20 molto_nuvoloso Molto Nuvoloso 10 9 93 1018 10 N 3.7
Ieri h: 22:50 coperto Coperto 9 8 93 1018 10 N 3.7
Ieri h: 22:20 sereno Sereno 12 9 81 1017 10 N 5.5
Ieri h: 21:50 sereno Sereno 12 9 81 1017 10 S/SE 9.3
Ieri h: 21:20 sereno Sereno 13 9 76 1017 10 S 13
Ieri h: 20:50 sereno Sereno 13 9 76 1017 10 S 13
Ieri h: 20:20 sereno Sereno 15 9 67 1016 10 S/SE 14.8
Ieri h: 19:50 sereno Sereno 15 9 67 1015 10 S/SO 16.7
Ieri h: 19:20 sereno Sereno 16 10 67 1015 10 SO 16.7
Ieri h: 18:50 nuvoloso Nuvoloso 17 8 55 1015 10 S 11.1
Ieri h: 18:20 nuvoloso Nuvoloso 17 7 51 1016 10 SO 20.3
Ieri h: 17:50 molto_nuvoloso Molto Nuvoloso 19 7 45 1016 10 SO 24
Ieri h: 17:20 molto_nuvoloso Molto Nuvoloso 18 6 45 1016 10 SO 22.2
Ieri h: 16:50 nuvoloso Nuvoloso 18 3 36 1016 10 SO 14.8
Ieri h: 16:20 nuvoloso Nuvoloso 19 4 37 1016 10 SO 9.3
Ieri h: 15:50 nuvoloso Nuvoloso 19 3 34 1017 10 SO 14.8
Ieri h: 15:20 nuvoloso Nuvoloso 19 3 34 1017 10 S/SO 18.5
Ieri h: 14:50 nuvoloso Nuvoloso 19 2 32 1017 10 N/NE 9.3
Ieri h: 14:20 nuvoloso Nuvoloso 19 2 32 1017 10 N 5.5
Ieri h: 13:50 nuvoloso Nuvoloso 19 3 34 1017 10 N 7.4